Time;durP1;ratioP1;P1;durP2;ratioP2;P2;SDS_P1;SDS_P2;PMS_P1;PMS_P2;Temp;Humidity;BMP_temperature;BMP_pressure;BME280_temperature;BME280_humidity;BME280_pressure;Samples;Min_cycle;Max_cycle;Signal;HPM_P1;HPM_P2
2022/10/12 00:02:17;;;;;;;30.98;11.07;;;;;;;7.76;87.50;102065.16;5070767;28;20124;-58
2022/10/12 00:04:43;;;;;;;30.67;10.45;;;;;;;7.81;87.01;102072.78;5053870;28;20045;-58
2022/10/12 00:07:10;;;;;;;32.45;10.43;;;;;;;7.81;86.83;102073.63;5055362;28;20049;-58
2022/10/12 00:09:36;;;;;;;29.73;11.45;;;;;;;7.73;86.86;102075.09;5054928;28;20402;-58
2022/10/12 00:12:03;;;;;;;23.38;10.13;;;;;;;7.73;87.77;102080.38;5055414;28;20041;-58
2022/10/12 00:14:30;;;;;;;25.83;10.90;;;;;;;7.74;87.40;102084.72;5054827;28;20049;-58
2022/10/12 00:16:57;;;;;;;31.98;10.52;;;;;;;7.71;87.79;102079.63;5055257;28;20048;-58
2022/10/12 00:19:23;;;;;;;28.95;10.20;;;;;;;7.77;86.84;102073.97;5054942;28;20049;-57
2022/10/12 00:21:50;;;;;;;34.15;10.30;;;;;;;7.77;86.61;102071.31;5054790;28;20064;-59
2022/10/12 00:24:17;;;;;;;31.00;9.38;;;;;;;7.80;86.55;102071.09;5054853;28;20107;-59
2022/10/12 00:26:43;;;;;;;29.60;9.80;;;;;;;7.76;86.07;102061.69;5054595;28;20045;-59
2022/10/12 00:29:11;;;;;;;32.17;9.27;;;;;;;7.73;85.88;102061.88;5054752;28;20045;-58
2022/10/12 00:31:38;;;;;;;20.63;8.82;;;;;;;7.77;85.76;102069.50;5054865;28;20049;-58
2022/10/12 00:34:04;;;;;;;33.50;9.80;;;;;;;7.78;85.98;102065.91;5054701;28;20110;-58
2022/10/12 00:36:34;;;;;;;29.50;9.38;;;;;;;7.77;85.67;102058.94;5055002;28;20049;-58
2022/10/12 00:39:03;;;;;;;28.27;9.00;;;;;;;7.86;85.33;102063.59;5041796;28;20446;-58
2022/10/12 00:41:33;;;;;;;25.40;8.75;;;;;;;7.90;85.29;102066.03;5053666;28;20128;-59
2022/10/12 00:44:00;;;;;;;26.08;8.23;;;;;;;7.93;83.90;102063.19;5054257;28;20045;-58
2022/10/12 00:46:44;;;;;;;25.13;8.80;;;;;;;7.92;84.05;102067.63;5054557;28;20044;-58
2022/10/12 00:49:19;;;;;;;28.83;8.93;;;;;;;7.94;84.26;102060.44;5054437;28;20490;-58
2022/10/12 00:51:49;;;;;;;25.90;9.25;;;;;;;7.92;83.89;102059.69;4942673;28;20157;-58
2022/10/12 00:54:24;;;;;;;28.35;9.27;;;;;;;7.90;84.18;102060.75;5054112;28;20490;-59
2022/10/12 00:56:53;;;;;;;25.13;8.88;;;;;;;7.90;84.42;102058.13;5054345;28;20051;-58
2022/10/12 00:59:32;;;;;;;23.48;9.02;;;;;;;7.88;84.66;102066.16;5052945;28;20099;-58
2022/10/12 01:01:59;;;;;;;23.67;8.43;;;;;;;7.81;83.94;102068.34;5054351;28;20442;-58
2022/10/12 01:04:26;;;;;;;27.48;9.15;;;;;;;7.75;84.60;102070.53;5052947;28;20370;-58
2022/10/12 01:06:53;;;;;;;26.95;8.55;;;;;;;7.77;83.95;102072.16;5053997;28;20460;-58
2022/10/12 01:09:20;;;;;;;28.95;9.77;;;;;;;7.79;84.03;102064.97;5054641;28;20049;-58
2022/10/12 01:11:47;;;;;;;22.20;8.55;;;;;;;7.81;83.71;102068.34;5053939;28;20478;-58
2022/10/12 01:14:14;;;;;;;24.40;8.93;;;;;;;7.78;84.35;102075.63;5053931;28;20045;-58
2022/10/12 01:17:08;;;;;;;26.95;8.40;;;;;;;7.74;83.71;102067.06;5053782;28;20140;-58
2022/10/12 01:22:18;;;;;;;25.95;8.38;;;;;;;7.73;84.20;102067.16;5110732;27;20409;-58
2022/10/12 01:24:59;;;;;;;23.30;9.07;;;;;;;7.60;84.62;102056.56;5111326;28;20454;-58
2022/10/12 01:27:35;;;;;;;24.73;8.50;;;;;;;7.58;84.15;102058.47;5103353;28;20289;-58
2022/10/12 01:30:14;;;;;;;24.35;8.73;;;;;;;7.52;84.86;102050.97;5090387;28;20131;-58
2022/10/12 01:33:19;;;;;;;25.33;8.65;;;;;;;7.49;85.47;102049.38;5090708;28;20044;-58
2022/10/12 01:36:08;;;;;;;17.75;7.55;;;;;;;7.53;85.17;102045.59;5089264;28;20102;-58
2022/10/12 01:38:59;;;;;;;23.80;7.68;;;;;;;7.50;84.19;102044.00;5090231;28;20068;-58
2022/10/12 01:41:31;;;;;;;22.30;7.63;;;;;;;7.51;84.31;102047.47;5088782;28;20045;-58
2022/10/12 01:43:57;;;;;;;34.95;8.07;;;;;;;7.55;84.60;102042.81;5090166;28;20044;-58
2022/10/12 01:49:01;;;;;;;22.63;7.50;;;;;;;7.40;84.71;102040.25;5070585;28;20386;-58
2022/10/12 01:51:35;;;;;;;18.55;7.47;;;;;;;7.35;85.43;102028.31;4944199;28;20210;-58
2022/10/12 01:54:42;;;;;;;24.58;8.23;;;;;;;7.44;84.48;102035.63;5070712;28;20057;-58
2022/10/12 01:57:29;;;;;;;22.08;8.02;;;;;;;7.51;84.23;102034.25;5069757;28;20124;-58
2022/10/12 02:00:14;;;;;;;25.63;8.38;;;;;;;7.45;84.70;102034.69;5068155;28;20076;-59
2022/10/12 02:03:09;;;;;;;18.73;7.35;;;;;;;7.38;85.07;102028.13;5050193;28;20049;-58
2022/10/12 02:05:45;;;;;;;21.75;7.65;;;;;;;7.38;85.42;102030.75;5049738;28;20052;-58
2022/10/12 02:08:26;;;;;;;23.40;8.18;;;;;;;7.37;85.38;102031.69;5050014;28;20041;-58
2022/10/12 02:11:10;;;;;;;26.38;8.00;;;;;;;7.43;85.38;102031.31;5050247;28;20053;-58
2022/10/12 02:13:42;;;;;;;23.25;8.73;;;;;;;7.37;85.12;102032.56;5049861;28;20045;-58
2022/10/12 02:16:11;;;;;;;;;;;;;;;7.43;85.71;102039.22;5050634;28;20479;-59
2022/10/12 02:18:44;;;;;;;22.15;7.95;;;;;;;7.42;85.28;102026.97;5065244;28;20285;-58
2022/10/12 02:21:14;;;;;;;29.35;9.15;;;;;;;7.40;85.58;102031.50;5048817;28;20065;-58
2022/10/12 02:23:43;;;;;;;22.23;8.57;;;;;;;7.43;85.33;102039.22;5066043;28;20135;-58
2022/10/12 02:26:12;;;;;;;26.60;8.85;;;;;;;7.37;85.79;102026.41;5068537;28;20384;-58
2022/10/12 02:28:38;;;;;;;25.45;8.73;;;;;;;7.36;86.36;102024.75;5069481;28;20048;-58
2022/10/12 02:31:36;;;;;;;28.58;8.90;;;;;;;7.39;85.98;102019.25;5069611;28;20041;-58
2022/10/12 02:34:10;;;;;;;24.67;8.13;;;;;;;7.40;86.52;102018.31;5069461;28;20072;-58
2022/10/12 02:36:59;;;;;;;23.17;8.57;;;;;;;7.41;86.23;102023.47;5069538;28;20044;-58
2022/10/12 02:39:32;;;;;;;26.38;9.00;;;;;;;7.32;86.46;102016.19;5069704;28;20079;-58
2022/10/12 02:42:07;;;;;;;24.85;8.88;;;;;;;7.27;86.74;102016.47;5068319;28;20450;-58
2022/10/12 02:44:37;;;;;;;22.15;8.73;;;;;;;7.34;86.26;102002.88;5068811;28;20051;-58
2022/10/12 02:47:07;;;;;;;24.90;9.15;;;;;;;7.43;86.41;102007.53;5069080;28;20498;-58
2022/10/12 02:49:35;;;;;;;31.55;9.30;;;;;;;7.35;86.36;102000.13;5069238;28;20131;-58
2022/10/12 02:52:04;;;;;;;30.30;9.55;;;;;;;7.40;85.97;102000.66;4950610;28;20544;-59
2022/10/12 02:54:31;;;;;;;28.15;8.48;;;;;;;7.41;86.88;101996.25;5068674;28;20051;-59
2022/10/12 02:56:57;;;;;;;26.73;9.20;;;;;;;7.42;86.61;101996.16;5069122;28;20045;-59
2022/10/12 02:59:25;;;;;;;24.08;9.30;;;;;;;7.45;86.00;101988.00;5060543;28;20036;-59
2022/10/12 03:01:51;;;;;;;26.23;9.50;;;;;;;7.40;86.63;101984.81;5055963;28;20053;-59
2022/10/12 03:04:18;;;;;;;25.15;9.18;;;;;;;7.38;86.58;101978.78;5055477;28;20497;-59
2022/10/12 03:06:45;;;;;;;29.83;8.45;;;;;;;7.33;86.64;101980.06;5055300;28;20110;-59
2022/10/12 03:09:13;;;;;;;28.02;8.93;;;;;;;7.24;86.57;101987.66;5056004;28;20128;-59
2022/10/12 03:11:43;;;;;;;22.70;8.32;;;;;;;7.25;86.99;101977.94;5055338;28;20049;-59
2022/10/12 03:14:11;;;;;;;22.33;8.32;;;;;;;7.23;86.71;101979.84;5037796;28;20053;-59
2022/10/12 03:16:38;;;;;;;29.80;9.13;;;;;;;7.32;86.47;101981.03;5055424;28;20045;-59
2022/10/12 03:19:04;;;;;;;27.50;8.60;;;;;;;7.27;86.90;101982.16;5055822;28;20395;-59
2022/10/12 03:21:31;;;;;;;25.27;8.60;;;;;;;7.29;87.22;101985.56;5054237;28;20094;-59
2022/10/12 03:23:58;;;;;;;23.92;8.52;;;;;;;7.25;86.83;101978.78;5055411;28;20102;-59
2022/10/12 03:26:24;;;;;;;29.13;8.35;;;;;;;7.25;86.82;101976.13;5055549;28;20052;-59
2022/10/12 03:28:51;;;;;;;26.02;9.00;;;;;;;7.22;87.17;101976.34;5053638;28;20045;-59
2022/10/12 03:31:17;;;;;;;25.60;9.00;;;;;;;7.27;87.12;101976.03;5055682;28;20041;-59
2022/10/12 03:33:44;;;;;;;28.70;9.43;;;;;;;7.11;86.83;101969.16;5055109;28;20075;-59
2022/10/12 03:36:11;;;;;;;28.27;8.63;;;;;;;7.13;86.87;101973.47;5055253;28;20037;-59
2022/10/12 03:38:38;;;;;;;25.27;9.18;;;;;;;7.10;86.96;101975.34;5055001;28;20559;-59
2022/10/12 03:41:04;;;;;;;25.75;9.75;;;;;;;7.17;87.37;101969.66;5055148;28;20045;-59
2022/10/12 03:43:33;;;;;;;26.45;8.75;;;;;;;7.19;87.26;101973.91;5054714;28;20088;-59
2022/10/12 03:45:59;;;;;;;28.05;9.15;;;;;;;7.13;87.28;101973.47;5055135;28;20562;-59
2022/10/12 03:48:26;;;;;;;21.55;8.18;;;;;;;7.13;87.33;101969.06;5054497;28;20053;-59
2022/10/12 03:50:53;;;;;;;25.02;9.30;;;;;;;7.14;86.77;101964.63;4972586;28;21103;-57
2022/10/12 03:53:20;;;;;;;23.70;8.50;;;;;;;7.18;87.00;101968.72;5013903;28;20090;-59
2022/10/12 03:55:46;;;;;;;25.20;9.73;;;;;;;7.16;86.18;101968.00;5055094;28;20058;-59
2022/10/12 03:58:14;;;;;;;27.60;8.63;;;;;;;7.14;86.44;101964.63;5054416;28;20132;-58
2022/10/12 04:00:41;;;;;;;27.00;9.30;;;;;;;7.15;86.67;101968.94;5054149;28;20081;-58
2022/10/12 04:03:08;;;;;;;27.63;9.23;;;;;;;7.09;85.88;101963.13;5071902;28;20044;-58
2022/10/12 04:05:35;;;;;;;28.13;9.18;;;;;;;6.96;86.47;101962.22;5073750;28;20387;-59
2022/10/12 04:08:02;;;;;;;22.58;8.57;;;;;;;6.93;86.92;101959.81;5073846;28;20493;-59
2022/10/12 04:10:28;;;;;;;34.38;8.98;;;;;;;7.01;86.76;101964.59;5073755;28;20045;-58
2022/10/12 04:12:55;;;;;;;28.75;8.80;;;;;;;6.99;86.35;101964.69;5074830;28;20114;-57
2022/10/12 04:15:22;;;;;;;25.35;9.20;;;;;;;6.98;87.19;101962.97;5073876;28;20147;-57
2022/10/12 04:17:53;;;;;;;31.48;9.38;;;;;;;7.01;87.24;101961.94;5074688;28;20119;-57
2022/10/12 04:20:20;;;;;;;28.85;9.15;;;;;;;7.07;86.56;101972.06;5074186;28;20098;-58
2022/10/12 04:22:47;;;;;;;29.70;9.77;;;;;;;7.07;86.72;101972.91;5065791;28;20037;-58
2022/10/12 04:25:13;;;;;;;25.13;9.43;;;;;;;7.06;88.06;101973.88;5053975;28;20118;-58
2022/10/12 04:27:40;;;;;;;20.63;10.25;;;;;;;7.07;87.95;101962.34;5054378;28;20120;-58
2022/10/12 04:30:07;;;;;;;30.15;9.73;;;;;;;7.10;88.24;101967.44;5053906;28;20041;-58
2022/10/12 04:32:34;;;;;;;25.20;9.45;;;;;;;7.06;88.55;101968.59;5053973;28;20913;-57
2022/10/12 04:35:00;;;;;;;27.00;9.23;;;;;;;7.14;88.75;101962.81;5053869;28;20482;-59
2022/10/12 04:37:27;;;;;;;23.35;9.07;;;;;;;7.11;88.86;101961.22;5054002;28;20053;-59
2022/10/12 04:39:54;;;;;;;24.15;8.82;;;;;;;7.15;89.15;101956.59;5052769;28;20414;-59
2022/10/12 04:42:21;;;;;;;26.00;9.23;;;;;;;7.16;88.94;101953.00;5053838;28;20045;-59
2022/10/12 04:44:48;;;;;;;19.67;9.00;;;;;;;7.17;88.82;101949.41;5053895;28;20482;-59
2022/10/12 04:47:14;;;;;;;24.52;9.18;;;;;;;7.18;89.48;101950.25;5053512;28;20137;-59
2022/10/12 04:49:41;;;;;;;26.73;9.23;;;;;;;7.20;89.47;101954.47;5053843;28;20045;-59
2022/10/12 04:52:08;;;;;;;27.77;8.90;;;;;;;7.29;89.05;101956.53;4930036;28;20482;-59
2022/10/12 04:54:34;;;;;;;32.50;9.43;;;;;;;7.25;88.95;101947.09;5053562;28;20060;-59
2022/10/12 04:57:01;;;;;;;28.30;9.68;;;;;;;7.31;88.58;101956.41;5053588;28;20045;-59
2022/10/12 04:59:28;;;;;;;25.80;9.07;;;;;;;7.32;88.88;101959.91;5053196;28;20041;-59
2022/10/12 05:01:56;;;;;;;26.15;9.63;;;;;;;7.26;88.42;101945.31;5052137;28;20041;-59
2022/10/12 05:04:23;;;;;;;32.20;9.23;;;;;;;7.25;88.70;101952.38;5052041;28;20057;-58
2022/10/12 05:06:49;;;;;;;29.73;8.75;;;;;;;7.27;88.80;101949.63;5053007;28;20044;-59
2022/10/12 05:09:16;;;;;;;19.70;8.68;;;;;;;7.27;88.70;101952.28;5053595;28;20044;-58
2022/10/12 05:11:43;;;;;;;25.77;9.18;;;;;;;7.29;89.41;101945.09;5053119;28;20068;-59
2022/10/12 05:14:10;;;;;;;25.45;8.32;;;;;;;7.28;88.54;101951.34;5053053;28;20052;-59
2022/10/12 05:16:36;;;;;;;25.92;8.98;;;;;;;7.30;88.89;101952.09;5053342;28;20057;-59
2022/10/12 05:19:03;;;;;;;28.42;9.38;;;;;;;7.32;88.68;101954.63;5052183;28;20056;-58
2022/10/12 05:21:30;;;;;;;27.80;9.13;;;;;;;7.27;88.65;101944.38;5035553;28;20102;-59
2022/10/12 05:23:56;;;;;;;22.98;8.40;;;;;;;7.16;88.79;101946.88;5053068;28;20048;-59
2022/10/12 05:26:23;;;;;;;33.78;9.35;;;;;;;7.01;89.08;101943.47;5053461;28;20044;-60
2022/10/12 05:28:50;;;;;;;25.60;9.18;;;;;;;7.05;88.93;101937.88;5052538;28;20462;-59
2022/10/12 05:31:16;;;;;;;24.05;9.57;;;;;;;7.15;88.81;101948.69;5053453;28;20049;-59
2022/10/12 05:33:43;;;;;;;28.00;9.55;;;;;;;7.15;88.98;101948.69;5052627;28;20052;-59
2022/10/12 05:36:10;;;;;;;23.65;8.50;;;;;;;7.21;88.36;101945.63;5053073;28;20064;-59
2022/10/12 05:38:37;;;;;;;33.05;9.60;;;;;;;7.19;88.38;101950.16;5052753;28;20088;-59
2022/10/12 05:41:04;;;;;;;25.38;8.88;;;;;;;7.16;88.11;101953.00;5053133;28;20057;-59
2022/10/12 05:43:30;;;;;;;23.90;9.18;;;;;;;7.16;88.68;101952.16;5053160;28;20182;-59
2022/10/12 05:45:57;;;;;;;28.85;9.20;;;;;;;7.13;88.60;101957.63;5052649;28;20136;-59
2022/10/12 05:48:24;;;;;;;27.98;9.10;;;;;;;7.11;88.30;101952.44;5052479;28;20048;-59
2022/10/12 05:50:53;;;;;;;29.50;8.63;;;;;;;6.99;88.49;101950.66;4978655;28;20548;-59
2022/10/12 05:53:20;;;;;;;28.58;8.95;;;;;;;7.06;88.28;101955.41;4996630;28;20041;-59
2022/10/12 05:55:53;;;;;;;30.55;9.23;;;;;;;7.05;88.18;101956.34;5052767;28;20495;-59
2022/10/12 05:58:20;;;;;;;30.00;8.80;;;;;;;7.10;87.87;101958.69;5052786;28;20415;-59
2022/10/12 06:00:47;;;;;;;29.05;8.98;;;;;;;7.08;88.12;101960.59;5052503;28;20064;-59
2022/10/12 06:03:16;;;;;;;24.88;9.80;;;;;;;7.03;88.32;101963.53;5063091;28;20095;-59
2022/10/12 06:05:44;;;;;;;30.08;8.73;;;;;;;6.90;88.40;101958.19;5071904;28;20526;-59
2022/10/12 06:08:11;;;;;;;24.70;8.40;;;;;;;6.88;87.39;101960.09;5071858;28;20102;-59
2022/10/12 06:10:43;;;;;;;22.35;8.73;;;;;;;6.80;87.68;101948.34;5072638;28;20059;-59
2022/10/12 06:13:16;;;;;;;28.67;9.32;;;;;;;6.81;88.17;101950.91;5070018;28;20087;-58
2022/10/12 06:15:44;;;;;;;26.85;8.93;;;;;;;6.77;88.46;101952.03;5047216;28;20045;-59
2022/10/12 06:18:12;;;;;;;23.85;8.77;;;;;;;6.88;87.40;101951.34;5049591;28;20563;-59
2022/10/12 06:20:39;;;;;;;23.10;9.05;;;;;;;6.82;87.57;101951.72;5057721;28;20048;-60
2022/10/12 06:23:06;;;;;;;26.05;9.15;;;;;;;6.78;87.73;101966.06;5059139;28;20405;-61
2022/10/12 06:25:32;;;;;;;26.10;8.48;;;;;;;6.83;87.88;101958.72;5062924;28;20056;-61
2022/10/12 06:27:59;;;;;;;25.38;8.18;;;;;;;6.81;87.74;101966.72;5052971;28;20043;-61
2022/10/12 06:30:26;;;;;;;24.73;8.43;;;;;;;6.88;87.60;101959.25;5065511;28;20041;-61
2022/10/12 06:32:52;;;;;;;25.52;8.13;;;;;;;6.95;86.26;101962.31;5060114;28;20055;-61
2022/10/12 06:35:19;;;;;;;22.15;7.32;;;;;;;6.95;86.68;101964.97;5055743;28;20044;-60
2022/10/12 06:37:49;;;;;;;61.92;26.55;;;;;;;7.01;86.40;101965.41;5069648;28;20071;-60
2022/10/12 06:40:17;;;;;;;28.38;10.25;;;;;;;6.96;86.68;101964.88;5055739;28;20128;-58
2022/10/12 06:42:44;;;;;;;28.23;8.88;;;;;;;7.06;86.70;101970.41;5068612;28;20059;-58
2022/10/12 06:45:11;;;;;;;26.55;9.43;;;;;;;7.02;86.67;101975.03;5054699;28;20069;-59
2022/10/12 06:47:38;;;;;;;20.65;8.02;;;;;;;6.99;87.11;101975.22;5066703;28;20518;-58
2022/10/12 06:50:05;;;;;;;21.17;7.93;;;;;;;7.01;86.76;101973.34;5063945;28;20041;-58
2022/10/12 06:52:32;;;;;;;23.60;8.27;;;;;;;7.01;86.48;101969.84;5024962;28;20053;-59
2022/10/12 06:54:58;;;;;;;32.10;8.90;;;;;;;7.08;87.17;101974.63;5045678;28;20042;-58
2022/10/12 06:57:25;;;;;;;21.88;9.38;;;;;;;7.16;86.90;101971.47;5052524;28;20068;-59
2022/10/12 06:59:52;;;;;;;27.00;9.90;;;;;;;7.28;87.63;101970.66;5040959;28;20099;-59
2022/10/12 07:02:18;;;;;;;33.63;10.52;;;;;;;7.30;87.69;101968.75;5046761;28;20630;-59
2022/10/12 07:04:50;;;;;;;27.60;10.20;;;;;;;7.35;87.21;101970.22;5047460;28;20398;-59
2022/10/12 07:07:17;;;;;;;27.27;9.98;;;;;;;7.25;86.57;101970.84;5059629;28;20056;-59
2022/10/12 07:09:44;;;;;;;28.08;8.77;;;;;;;7.41;86.31;101970.69;5050669;28;20053;-58
2022/10/12 07:12:11;;;;;;;20.25;8.15;;;;;;;7.52;85.79;101967.31;5048435;28;20048;-59
2022/10/12 07:14:38;;;;;;;29.45;8.48;;;;;;;7.62;85.90;101968.38;5056412;28;20044;-59
2022/10/12 07:17:04;;;;;;;32.75;9.35;;;;;;;7.73;84.93;101964.16;5047693;28;20084;-59
2022/10/12 07:19:31;;;;;;;24.38;8.52;;;;;;;7.79;84.42;101963.75;5049622;28;20103;-59
2022/10/12 07:21:58;;;;;;;28.25;9.18;;;;;;;7.76;83.02;101961.31;5071229;28;20044;-58
2022/10/12 07:24:25;;;;;;;30.63;8.25;;;;;;;7.80;82.70;101962.78;5048388;28;20056;-58
2022/10/12 07:26:52;;;;;;;18.83;7.55;;;;;;;7.90;81.91;101963.00;5048391;28;20167;-58
2022/10/12 07:29:19;;;;;;;27.15;7.90;;;;;;;7.93;80.89;101958.34;5047927;28;20490;-58
2022/10/12 07:31:45;;;;;;;33.60;9.15;;;;;;;8.00;81.30;101959.59;5048197;28;20041;-59
2022/10/12 07:34:15;;;;;;;25.50;8.30;;;;;;;7.95;80.49;101959.09;5049348;28;20046;-58
2022/10/12 07:36:43;;;;;;;23.38;8.20;;;;;;;8.00;80.37;101956.94;5051997;28;20044;-59
2022/10/12 07:39:23;;;;;;;28.67;8.35;;;;;;;8.26;80.02;101951.63;5058997;28;20048;-58
2022/10/12 07:41:51;;;;;;;21.10;7.55;;;;;;;8.30;79.22;101958.38;5048468;28;20045;-59
2022/10/12 07:44:19;;;;;;;28.67;8.25;;;;;;;8.48;78.42;101952.75;5048096;28;20115;-58
2022/10/12 07:46:46;;;;;;;30.70;7.80;;;;;;;8.55;78.38;101948.69;5057130;28;20048;-58
2022/10/12 07:49:15;;;;;;;23.13;6.80;;;;;;;8.50;78.29;101946.41;5059590;28;20049;-59
2022/10/12 07:51:43;;;;;;;23.33;7.40;;;;;;;8.65;77.92;101955.03;5008233;28;20048;-59
2022/10/12 07:54:09;;;;;;;22.15;7.38;;;;;;;8.86;77.08;101954.41;5054749;28;20061;-59
2022/10/12 07:56:37;;;;;;;24.02;7.75;;;;;;;8.90;76.92;101954.06;5054678;28;20036;-58
2022/10/12 07:59:03;;;;;;;25.83;9.77;;;;;;;8.95;76.75;101967.81;5048921;28;20037;-58
2022/10/12 08:01:31;;;;;;;27.17;8.52;;;;;;;9.04;77.17;101961.00;5059515;28;20033;-59
2022/10/12 08:03:58;;;;;;;48.45;9.20;;;;;;;9.33;76.20;101968.53;5044006;28;20087;-58
2022/10/12 08:06:30;;;;;;;23.98;6.85;;;;;;;9.32;74.60;101970.34;5050856;28;20033;-58
2022/10/12 08:08:59;;;;;;;29.95;7.20;;;;;;;9.37;73.53;101968.19;5037282;28;20049;-58
2022/10/12 08:11:26;;;;;;;20.13;6.75;;;;;;;9.50;74.17;101968.13;5050180;28;20037;-58
2022/10/12 08:13:53;;;;;;;25.52;6.40;;;;;;;9.65;72.96;101963.44;5036099;28;20111;-58
2022/10/12 08:16:20;;;;;;;24.13;6.82;;;;;;;9.59;72.46;101966.56;5047870;28;20044;-59
2022/10/12 08:18:47;;;;;;;24.25;6.28;;;;;;;9.64;71.83;101967.06;5051017;28;20037;-58
2022/10/12 08:21:15;;;;;;;20.42;5.88;;;;;;;9.63;72.45;101960.06;5046579;28;20973;-58
2022/10/12 08:23:44;;;;;;;24.35;6.20;;;;;;;9.59;71.59;101956.81;5046809;28;20055;-58
2022/10/12 08:26:12;;;;;;;21.23;5.47;;;;;;;9.62;73.06;101958.38;5045065;28;20057;-58
2022/10/12 08:28:39;;;;;;;19.83;5.65;;;;;;;9.74;72.97;101953.94;5048772;28;20071;-58
2022/10/12 08:31:08;;;;;;;22.88;6.78;;;;;;;9.88;72.30;101959.00;5042024;28;20635;-58
2022/10/12 08:33:34;;;;;;;20.35;6.50;;;;;;;9.85;72.11;101942.50;5041644;28;20128;-59
2022/10/12 08:36:03;;;;;;;20.33;6.72;;;;;;;9.65;72.04;101950.19;5039573;28;20698;-59
2022/10/12 08:38:30;;;;;;;26.48;6.88;;;;;;;9.75;72.78;101950.31;5054059;28;20047;-58
2022/10/12 08:41:08;;;;;;;25.42;7.18;;;;;;;9.74;73.24;101948.66;5041705;28;20483;-57
2022/10/12 08:43:55;;;;;;;18.73;7.00;;;;;;;9.71;73.30;101952.34;5059233;28;20071;-58
2022/10/12 08:46:24;;;;;;;24.45;6.68;;;;;;;9.66;73.84;101946.59;5035554;28;20732;-59
2022/10/12 08:48:59;;;;;;;25.30;7.13;;;;;;;9.60;74.26;101936.44;5048690;28;20752;-59
2022/10/12 08:51:30;;;;;;;25.90;7.53;;;;;;;9.75;73.56;101943.22;5005615;28;20096;-59
2022/10/12 08:54:02;;;;;;;20.42;7.60;;;;;;;9.78;73.35;101942.13;5059023;28;20053;-59
2022/10/12 08:56:30;;;;;;;29.05;8.00;;;;;;;9.74;73.45;101941.53;5055870;28;20067;-58
2022/10/12 08:58:56;;;;;;;20.13;7.60;;;;;;;9.85;73.23;101942.50;5042916;28;20494;-58
2022/10/12 09:01:35;;;;;;;25.52;7.05;;;;;;;9.99;72.99;101936.97;5047532;28;20045;-58
2022/10/12 09:04:42;;;;;;;23.02;6.65;;;;;;;10.20;72.97;101950.31;5060276;28;20068;-58
2022/10/12 09:07:18;;;;;;;24.75;8.23;;;;;;;10.49;71.72;101961.28;5055295;28;20064;-58
2022/10/12 09:09:58;;;;;;;24.25;7.82;;;;;;;10.73;71.80;101953.16;5062256;28;20087;-58
2022/10/12 09:13:05;;;;;;;23.23;8.30;;;;;;;11.04;71.24;101952.41;5038576;28;20045;-58
2022/10/12 09:15:36;;;;;;;28.05;7.70;;;;;;;10.99;68.31;101947.50;5045467;28;20099;-58
2022/10/12 09:18:15;;;;;;;25.15;7.55;;;;;;;11.09;67.20;101955.53;5050280;28;20049;-58
2022/10/12 09:20:47;;;;;;;24.33;7.00;;;;;;;11.17;68.16;101965.50;5047251;28;20032;-58
2022/10/12 09:25:57;;;;;;;21.88;7.22;;;;;;;11.37;67.95;101962.06;5096071;27;20855;-58
2022/10/12 09:28:43;;;;;;;21.30;6.80;;;;;;;11.43;67.06;101963.34;5089863;28;20101;-57
2022/10/12 09:31:18;;;;;;;24.88;7.20;;;;;;;11.67;67.65;101965.72;5085237;28;20037;-58
2022/10/12 09:42:26;;;;;;;21.83;6.83;;;;;;;11.51;66.73;101959.06;5078025;28;20105;-57
2022/10/12 09:45:00;;;;;;;25.50;8.35;;;;;;;11.66;65.65;101962.22;5901880;22;20052;-58
2022/10/12 09:47:30;;;;;;;22.63;7.32;;;;;;;11.95;66.43;101960.72;5080030;28;20520;-58
2022/10/12 09:50:01;;;;;;;20.20;6.72;;;;;;;12.27;66.21;101956.06;5089446;28;20495;-58
2022/10/12 09:52:40;;;;;;;24.83;7.03;;;;;;;12.21;64.66;101953.13;4964551;28;20388;-59
2022/10/12 09:57:55;;;;;;;26.98;7.22;;;;;;;15.85;54.99;101951.34;5102055;27;20384;-57
2022/10/12 10:00:25;;;;;;;24.48;6.63;;;;;;;16.96;50.72;101945.00;5110835;28;20055;-58
2022/10/12 10:02:53;;;;;;;17.70;6.55;;;;;;;16.70;50.53;101948.63;5109152;28;20052;-58
2022/10/12 10:05:37;;;;;;;20.98;6.43;;;;;;;17.71;46.90;101941.22;5104440;28;20043;-58
2022/10/12 10:08:21;;;;;;;21.77;6.25;;;;;;;18.90;44.43;101942.84;5107651;28;20040;-58
2022/10/12 10:10:52;;;;;;;22.17;6.63;;;;;;;19.69;42.22;101950.50;5109969;28;20133;-58
2022/10/12 10:13:20;;;;;;;22.75;6.65;;;;;;;19.82;41.71;101951.72;5105076;28;20559;-58
2022/10/12 10:15:50;;;;;;;18.75;6.55;;;;;;;20.16;41.58;101950.31;5106558;28;20040;-58
2022/10/12 10:18:29;;;;;;;26.05;6.70;;;;;;;19.98;42.11;101962.31;5109663;28;20044;-58
2022/10/12 10:20:58;;;;;;;28.10;7.53;;;;;;;19.14;43.15;101952.53;5105079;28;20058;-58
2022/10/12 10:23:28;;;;;;;17.70;6.43;;;;;;;19.30;43.20;101951.56;5109178;28;20571;-58
2022/10/12 10:26:02;;;;;;;23.50;6.57;;;;;;;20.02;41.82;101954.69;5100266;28;20044;-58
2022/10/12 10:28:32;;;;;;;21.55;7.15;;;;;;;18.91;42.68;101957.09;5089663;28;20061;-58
2022/10/12 10:31:03;;;;;;;20.30;6.60;;;;;;;19.25;42.58;101956.66;5080545;28;20501;-58
2022/10/12 10:33:32;;;;;;;18.17;6.53;;;;;;;20.83;39.58;101954.59;5089954;28;20405;-58
2022/10/12 10:36:27;;;;;;;27.15;7.30;;;;;;;22.88;36.50;101953.25;5085695;28;20114;-58
2022/10/12 10:38:59;;;;;;;25.17;6.25;;;;;;;24.09;33.79;101959.38;5086661;28;20045;-58
2022/10/12 10:41:32;;;;;;;23.15;6.63;;;;;;;24.31;33.65;101957.19;5084235;28;20041;-58
2022/10/12 10:43:59;;;;;;;23.52;6.85;;;;;;;24.57;32.72;101955.41;5096019;28;20526;-54
2022/10/12 10:46:30;;;;;;;28.23;7.28;;;;;;;23.11;33.91;101946.66;5092905;28;20131;-53
2022/10/12 10:49:05;;;;;;;18.42;6.97;;;;;;;23.95;33.57;101956.72;5104658;28;20500;-54
2022/10/12 10:51:46;;;;;;;18.77;6.88;;;;;;;25.00;31.32;101949.28;4979578;28;20507;-54
2022/10/12 10:59:55;;;;;;;29.05;8.05;;;;;;;24.46;32.41;101946.88;5107512;27;20355;-54
2022/10/12 11:02:47;;;;;;;22.88;7.00;;;;;;;23.70;32.14;101945.75;5101818;28;20044;-53
2022/10/12 11:05:34;;;;;;;22.75;6.95;;;;;;;25.46;31.02;101948.03;5088496;28;20416;-52
2022/10/12 11:08:10;;;;;;;41.75;7.93;;;;;;;25.85;30.20;101938.63;5094687;28;20048;-54
2022/10/12 11:10:48;;;;;;;19.80;6.85;;;;;;;25.32;30.05;101936.47;5091513;28;20044;-54
2022/10/12 11:13:23;;;;;;;24.92;6.68;;;;;;;25.81;29.99;101934.72;5081862;28;20055;-54
2022/10/12 11:15:58;;;;;;;29.80;6.50;;;;;;;25.67;30.49;101925.06;5088024;28;20041;-54
2022/10/12 11:18:35;;;;;;;23.65;6.60;;;;;;;25.64;30.05;101925.50;5081347;28;20079;-54
2022/10/12 11:21:11;;;;;;;24.63;6.43;;;;;;;25.56;30.63;101925.78;5089128;28;20044;-55
2022/10/12 11:26:25;;;;;;;19.35;5.82;;;;;;;25.17;31.09;101917.78;5110149;27;20376;-53
2022/10/12 11:28:55;;;;;;;21.13;5.90;;;;;;;25.18;31.27;101915.94;5105151;28;20079;-54
2022/10/12 11:31:27;;;;;;;28.55;6.68;;;;;;;23.29;33.42;101913.53;5109231;28;20143;-53
2022/10/12 11:33:57;;;;;;;20.80;6.13;;;;;;;22.79;34.56;101903.09;5104918;28;20054;-53
2022/10/12 11:36:29;;;;;;;20.50;5.82;;;;;;;21.26;36.82;101890.63;5106570;28;20093;-54
2022/10/12 11:39:02;;;;;;;22.58;7.53;;;;;;;20.62;38.04;101898.81;5108221;28;20557;-53
2022/10/12 11:41:44;;;;;;;24.15;7.50;;;;;;;20.78;38.63;101898.56;5104725;28;20055;-53
2022/10/12 11:44:35;;;;;;;24.55;6.38;;;;;;;20.69;39.00;101899.72;5109394;28;20043;-52
2022/10/12 11:47:14;;;;;;;19.25;5.85;;;;;;;19.33;41.20;101889.31;5104970;28;20093;-52
2022/10/12 11:49:50;;;;;;;24.13;5.88;;;;;;;19.54;42.32;101899.34;5108837;28;20097;-54
2022/10/12 11:52:19;;;;;;;22.35;5.78;;;;;;;19.77;41.68;101893.06;4970791;28;20062;-52
2022/10/12 11:55:10;;;;;;;19.42;5.60;;;;;;;19.90;41.45;101887.84;5105869;28;20048;-52
2022/10/12 11:57:37;;;;;;;20.30;5.95;;;;;;;19.48;41.74;101880.41;5104662;28;20054;-52
2022/10/12 12:00:15;;;;;;;18.13;5.90;;;;;;;18.87;42.84;101883.22;5088084;28;20044;-53
2022/10/12 12:02:48;;;;;;;21.10;6.50;;;;;;;17.92;46.03;101870.88;5085689;28;20072;-52
2022/10/12 12:05:16;;;;;;;21.25;6.07;;;;;;;18.15;46.24;101874.44;5096627;28;20135;-53
2022/10/12 12:07:48;;;;;;;26.08;6.60;;;;;;;18.50;45.83;101858.78;5100322;28;20048;-53
2022/10/12 12:18:30;;;;;;;23.67;6.93;;;;;;;17.82;46.44;101863.81;5127954;27;20872;-52